sensor_id;sensor_type;location;lat;lon;timestamp;pressure;altitude;pressure_sealevel;temperature;humidity
47670;BME280;33408;52.062;11.722;2022-09-24T00:02:22;100940.06;;;12.81;100.00
47670;BME280;33408;52.062;11.722;2022-09-24T00:04:49;100935.03;;;12.73;100.00
47670;BME280;33408;52.062;11.722;2022-09-24T00:07:15;100929.78;;;12.75;100.00
47670;BME280;33408;52.062;11.722;2022-09-24T00:09:42;100932.31;;;12.78;100.00
47670;BME280;33408;52.062;11.722;2022-09-24T00:12:08;100934.88;;;12.80;100.00
47670;BME280;33408;52.062;11.722;2022-09-24T00:14:37;100927.16;;;12.76;100.00
47670;BME280;33408;52.062;11.722;2022-09-24T00:17:03;100926.31;;;12.76;100.00
47670;BME280;33408;52.062;11.722;2022-09-24T00:19:31;100925.31;;;12.82;100.00
47670;BME280;33408;52.062;11.722;2022-09-24T00:21:58;100917.66;;;12.75;100.00
47670;BME280;33408;52.062;11.722;2022-09-24T00:24:24;100917.63;;;12.77;100.00
47670;BME280;33408;52.062;11.722;2022-09-24T00:27:08;100916.16;;;12.65;100.00
47670;BME280;33408;52.062;11.722;2022-09-24T00:29:35;100917.03;;;12.66;100.00
47670;BME280;33408;52.062;11.722;2022-09-24T00:32:02;100914.41;;;12.67;100.00
47670;BME280;33408;52.062;11.722;2022-09-24T00:34:29;100903.09;;;12.68;100.00
47670;BME280;33408;52.062;11.722;2022-09-24T00:36:57;100912.56;;;12.71;100.00
47670;BME280;33408;52.062;11.722;2022-09-24T00:39:24;100900.38;;;12.73;100.00
47670;BME280;33408;52.062;11.722;2022-09-24T00:41:50;100899.50;;;12.74;100.00
47670;BME280;33408;52.062;11.722;2022-09-24T00:44:46;100906.50;;;12.72;100.00
47670;BME280;33408;52.062;11.722;2022-09-24T00:47:22;100910.84;;;12.70;100.00
47670;BME280;33408;52.062;11.722;2022-09-24T00:49:51;100899.41;;;12.77;100.00
47670;BME280;33408;52.062;11.722;2022-09-24T00:52:22;100903.81;;;12.73;100.00
47670;BME280;33408;52.062;11.722;2022-09-24T00:54:49;100893.69;;;12.63;100.00
47670;BME280;33408;52.062;11.722;2022-09-24T00:57:15;100889.41;;;12.60;100.00
47670;BME280;33408;52.062;11.722;2022-09-24T00:59:42;100889.59;;;12.52;100.00
47670;BME280;33408;52.062;11.722;2022-09-24T01:02:09;100887.00;;;12.52;100.00
47670;BME280;33408;52.062;11.722;2022-09-24T01:04:37;100881.81;;;12.51;100.00
47670;BME280;33408;52.062;11.722;2022-09-24T01:07:03;100880.94;;;12.52;100.00
47670;BME280;33408;52.062;11.722;2022-09-24T01:09:31;100885.03;;;12.62;100.00
47670;BME280;33408;52.062;11.722;2022-09-24T01:12:02;100889.34;;;12.63;100.00
47670;BME280;33408;52.062;11.722;2022-09-24T01:14:39;100895.38;;;12.64;100.00
47670;BME280;33408;52.062;11.722;2022-09-24T01:17:14;100895.59;;;12.56;100.00
47670;BME280;33408;52.062;11.722;2022-09-24T01:19:59;100896.56;;;12.52;100.00
47670;BME280;33408;52.062;11.722;2022-09-24T01:22:41;100903.47;;;12.53;100.00
47670;BME280;33408;52.062;11.722;2022-09-24T01:25:17;100902.66;;;12.49;100.00
47670;BME280;33408;52.062;11.722;2022-09-24T01:28:00;100896.63;;;12.49;100.00
47670;BME280;33408;52.062;11.722;2022-09-24T01:30:34;100893.81;;;12.58;100.00
47670;BME280;33408;52.062;11.722;2022-09-24T01:33:05;100895.56;;;12.57;100.00
47670;BME280;33408;52.062;11.722;2022-09-24T01:35:35;100898.22;;;12.54;100.00
47670;BME280;33408;52.062;11.722;2022-09-24T01:38:06;100889.78;;;12.46;100.00
47670;BME280;33408;52.062;11.722;2022-09-24T01:40:35;100887.19;;;12.45;100.00
47670;BME280;33408;52.062;11.722;2022-09-24T01:43:04;100889.78;;;12.46;100.00
47670;BME280;33408;52.062;11.722;2022-09-24T01:45:35;100890.84;;;12.36;100.00
47670;BME280;33408;52.062;11.722;2022-09-24T01:48:04;100892.50;;;12.40;100.00
47670;BME280;33408;52.062;11.722;2022-09-24T01:50:33;100882.84;;;12.45;100.00
47670;BME280;33408;52.062;11.722;2022-09-24T01:53:07;100880.34;;;12.40;100.00
47670;BME280;33408;52.062;11.722;2022-09-24T01:55:38;100887.16;;;12.46;100.00
47670;BME280;33408;52.062;11.722;2022-09-24T01:58:09;100890.56;;;12.48;100.00
47670;BME280;33408;52.062;11.722;2022-09-24T02:00:42;100887.28;;;12.42;100.00
47670;BME280;33408;52.062;11.722;2022-09-24T02:03:14;100890.84;;;12.36;100.00
47670;BME280;33408;52.062;11.722;2022-09-24T02:05:43;100886.44;;;12.39;100.00
47670;BME280;33408;52.062;11.722;2022-09-24T02:08:17;100889.16;;;12.35;100.00
47670;BME280;33408;52.062;11.722;2022-09-24T02:10:50;100881.22;;;12.39;100.00
47670;BME280;33408;52.062;11.722;2022-09-24T02:13:20;100882.19;;;12.37;100.00
47670;BME280;33408;52.062;11.722;2022-09-24T02:15:53;100881.75;;;12.18;100.00
47670;BME280;33408;52.062;11.722;2022-09-24T02:18:24;100881.66;;;12.21;100.00
47670;BME280;33408;52.062;11.722;2022-09-24T02:20:52;100886.69;;;12.29;100.00
47670;BME280;33408;52.062;11.722;2022-09-24T02:23:19;100881.56;;;12.26;100.00
47670;BME280;33408;52.062;11.722;2022-09-24T02:25:48;100873.72;;;12.29;100.00
47670;BME280;33408;52.062;11.722;2022-09-24T02:28:17;100871.13;;;12.27;100.00
47670;BME280;33408;52.062;11.722;2022-09-24T02:30:47;100877.25;;;12.25;100.00
47670;BME280;33408;52.062;11.722;2022-09-24T02:33:17;100871.94;;;12.29;100.00
47670;BME280;33408;52.062;11.722;2022-09-24T02:36:03;100864.63;;;12.09;100.00
47670;BME280;33408;52.062;11.722;2022-09-24T02:38:30;100863.53;;;12.18;100.00
47670;BME280;33408;52.062;11.722;2022-09-24T02:40:57;100855.00;;;12.13;100.00
47670;BME280;33408;52.062;11.722;2022-09-24T02:43:23;100848.03;;;12.15;100.00
47670;BME280;33408;52.062;11.722;2022-09-24T02:45:50;100860.16;;;12.14;100.00
47670;BME280;33408;52.062;11.722;2022-09-24T02:48:18;100856.09;;;12.02;100.00
47670;BME280;33408;52.062;11.722;2022-09-24T02:50:44;100853.38;;;12.07;100.00
47670;BME280;33408;52.062;11.722;2022-09-24T02:53:11;100852.47;;;12.10;100.00
47670;BME280;33408;52.062;11.722;2022-09-24T02:55:37;100853.19;;;12.16;100.00
47670;BME280;33408;52.062;11.722;2022-09-24T02:58:04;100851.44;;;12.17;100.00
47670;BME280;33408;52.062;11.722;2022-09-24T03:00:31;100857.47;;;12.19;100.00
47670;BME280;33408;52.062;11.722;2022-09-24T03:02:57;100854.91;;;12.17;100.00
47670;BME280;33408;52.062;11.722;2022-09-24T03:05:25;100853.09;;;12.21;100.00
47670;BME280;33408;52.062;11.722;2022-09-24T03:07:52;100851.41;;;12.18;100.00
47670;BME280;33408;52.062;11.722;2022-09-24T03:10:19;100851.84;;;12.00;100.00
47670;BME280;33408;52.062;11.722;2022-09-24T03:12:45;100856.06;;;12.04;100.00
47670;BME280;33408;52.062;11.722;2022-09-24T03:15:12;100842.72;;;11.80;100.00
47670;BME280;33408;52.062;11.722;2022-09-24T03:17:38;100853.19;;;11.76;100.00
47670;BME280;33408;52.062;11.722;2022-09-24T03:20:06;100846.91;;;11.86;100.00
47670;BME280;33408;52.062;11.722;2022-09-24T03:22:33;100856.41;;;11.87;100.00
47670;BME280;33408;52.062;11.722;2022-09-24T03:25:00;100853.06;;;11.82;100.00
47670;BME280;33408;52.062;11.722;2022-09-24T03:27:27;100859.13;;;11.81;100.00
47670;BME280;33408;52.062;11.722;2022-09-24T03:29:53;100858.97;;;11.89;100.00
47670;BME280;33408;52.062;11.722;2022-09-24T03:32:37;100854.88;;;11.77;100.00
47670;BME280;33408;52.062;11.722;2022-09-24T03:35:05;100854.06;;;11.75;100.00
47670;BME280;33408;52.062;11.722;2022-09-24T03:37:36;100850.56;;;11.77;100.00
47670;BME280;33408;52.062;11.722;2022-09-24T03:40:03;100855.88;;;11.71;100.00
47670;BME280;33408;52.062;11.722;2022-09-24T03:42:31;100855.09;;;11.67;100.00
47670;BME280;33408;52.062;11.722;2022-09-24T03:44:58;100857.91;;;11.57;100.00
47670;BME280;33408;52.062;11.722;2022-09-24T03:47:24;100850.03;;;11.61;100.00
47670;BME280;33408;52.062;11.722;2022-09-24T03:49:51;100845.84;;;11.54;100.00
47670;BME280;33408;52.062;11.722;2022-09-24T03:52:18;100840.81;;;11.46;100.00
47670;BME280;33408;52.062;11.722;2022-09-24T03:54:46;100844.22;;;11.50;100.00
47670;BME280;33408;52.062;11.722;2022-09-24T03:57:12;100842.53;;;11.46;100.00
47670;BME280;33408;52.062;11.722;2022-09-24T03:59:39;100835.88;;;11.34;100.00
47670;BME280;33408;52.062;11.722;2022-09-24T04:02:06;100842.16;;;11.22;100.00
47670;BME280;33408;52.062;11.722;2022-09-24T04:04:32;100832.53;;;11.29;100.00
47670;BME280;33408;52.062;11.722;2022-09-24T04:06:59;100832.56;;;11.26;100.00
47670;BME280;33408;52.062;11.722;2022-09-24T04:09:25;100828.13;;;11.32;100.00
47670;BME280;33408;52.062;11.722;2022-09-24T04:11:53;100829.03;;;11.30;100.00
47670;BME280;33408;52.062;11.722;2022-09-24T04:14:20;100828.41;;;11.17;100.00
47670;BME280;33408;52.062;11.722;2022-09-24T04:16:47;100824.81;;;11.24;100.00
47670;BME280;33408;52.062;11.722;2022-09-24T04:19:13;100827.88;;;11.01;100.00
47670;BME280;33408;52.062;11.722;2022-09-24T04:21:41;100818.88;;;11.19;100.00
47670;BME280;33408;52.062;11.722;2022-09-24T04:24:08;100825.34;;;10.97;100.00
47670;BME280;33408;52.062;11.722;2022-09-24T04:26:34;100820.16;;;10.97;100.00
47670;BME280;33408;52.062;11.722;2022-09-24T04:29:02;100824.34;;;11.04;100.00
47670;BME280;33408;52.062;11.722;2022-09-24T04:31:29;100814.97;;;10.97;100.00
47670;BME280;33408;52.062;11.722;2022-09-24T04:33:57;100815.97;;;10.89;100.00
47670;BME280;33408;52.062;11.722;2022-09-24T04:36:24;100813.28;;;10.94;100.00
47670;BME280;33408;52.062;11.722;2022-09-24T04:38:51;100809.31;;;10.74;100.00
47670;BME280;33408;52.062;11.722;2022-09-24T04:41:17;100810.91;;;10.82;100.00
47670;BME280;33408;52.062;11.722;2022-09-24T04:43:44;100815.81;;;10.99;100.00
47670;BME280;33408;52.062;11.722;2022-09-24T04:46:13;100806.16;;;11.05;100.00
47670;BME280;33408;52.062;11.722;2022-09-24T04:48:39;100816.59;;;11.02;100.00
47670;BME280;33408;52.062;11.722;2022-09-24T04:51:06;100820.97;;;11.00;100.00
47670;BME280;33408;52.062;11.722;2022-09-24T04:53:34;100819.97;;;11.06;100.00
47670;BME280;33408;52.062;11.722;2022-09-24T04:56:01;100812.06;;;11.12;100.00
47670;BME280;33408;52.062;11.722;2022-09-24T04:58:28;100825.16;;;11.06;100.00
47670;BME280;33408;52.062;11.722;2022-09-24T05:00:55;100822.44;;;11.13;100.00
47670;BME280;33408;52.062;11.722;2022-09-24T05:03:23;100821.59;;;11.13;100.00
47670;BME280;33408;52.062;11.722;2022-09-24T05:05:50;100820.78;;;11.09;100.00
47670;BME280;33408;52.062;11.722;2022-09-24T05:08:16;100820.97;;;11.00;100.00
47670;BME280;33408;52.062;11.722;2022-09-24T05:10:43;100815.56;;;11.11;100.00
47670;BME280;33408;52.062;11.722;2022-09-24T05:13:09;100823.34;;;11.11;100.00
47670;BME280;33408;52.062;11.722;2022-09-24T05:15:36;100826.78;;;11.13;100.00
47670;BME280;33408;52.062;11.722;2022-09-24T05:18:02;100826.78;;;11.13;100.00
47670;BME280;33408;52.062;11.722;2022-09-24T05:20:31;100826.78;;;11.13;100.00
47670;BME280;33408;52.062;11.722;2022-09-24T05:22:58;100818.94;;;11.16;100.00
47670;BME280;33408;52.062;11.722;2022-09-24T05:25:24;100817.91;;;11.23;100.00
47670;BME280;33408;52.062;11.722;2022-09-24T05:27:52;100820.56;;;11.20;100.00
47670;BME280;33408;52.062;11.722;2022-09-24T05:30:20;100821.47;;;11.19;100.00
47670;BME280;33408;52.062;11.722;2022-09-24T05:32:47;100834.44;;;11.19;100.00
47670;BME280;33408;52.062;11.722;2022-09-24T05:35:16;100826.44;;;11.30;100.00
47670;BME280;33408;52.062;11.722;2022-09-24T05:37:44;100835.56;;;11.04;100.00
47670;BME280;33408;52.062;11.722;2022-09-24T05:40:13;100827.91;;;11.00;100.00
47670;BME280;33408;52.062;11.722;2022-09-24T05:42:58;100838.78;;;11.17;100.00
47670;BME280;33408;52.062;11.722;2022-09-24T05:45:25;100829.06;;;11.28;100.00
47670;BME280;33408;52.062;11.722;2022-09-24T05:47:52;100835.19;;;11.24;100.00
47670;BME280;33408;52.062;11.722;2022-09-24T05:50:18;100841.97;;;11.31;100.00
47670;BME280;33408;52.062;11.722;2022-09-24T05:52:46;100846.09;;;11.42;100.00
47670;BME280;33408;52.062;11.722;2022-09-24T05:55:13;100848.59;;;11.48;100.00
47670;BME280;33408;52.062;11.722;2022-09-24T05:57:40;100846.97;;;11.41;100.00
47670;BME280;33408;52.062;11.722;2022-09-24T06:00:07;100845.06;;;11.50;100.00
47670;BME280;33408;52.062;11.722;2022-09-24T06:02:33;100850.13;;;11.57;100.00
47670;BME280;33408;52.062;11.722;2022-09-24T06:05:00;100850.06;;;11.60;100.00
47670;BME280;33408;52.062;11.722;2022-09-24T06:07:26;100853.75;;;11.49;100.00
47670;BME280;33408;52.062;11.722;2022-09-24T06:09:54;100852.88;;;11.49;100.00
47670;BME280;33408;52.062;11.722;2022-09-24T06:12:23;100858.53;;;11.26;100.00
47670;BME280;33408;52.062;11.722;2022-09-24T06:14:50;100858.53;;;11.26;100.00
47670;BME280;33408;52.062;11.722;2022-09-24T06:17:18;100848.44;;;11.09;100.00
47670;BME280;33408;52.062;11.722;2022-09-24T06:19:44;100857.84;;;11.16;100.00
47670;BME280;33408;52.062;11.722;2022-09-24T06:22:11;100860.38;;;11.19;100.00
47670;BME280;33408;52.062;11.722;2022-09-24T06:24:38;100862.06;;;11.20;100.00
47670;BME280;33408;52.062;11.722;2022-09-24T06:27:06;100860.22;;;11.27;100.00
47670;BME280;33408;52.062;11.722;2022-09-24T06:29:33;100860.00;;;11.39;100.00
47670;BME280;33408;52.062;11.722;2022-09-24T06:32:00;100862.50;;;11.44;100.00
47670;BME280;33408;52.062;11.722;2022-09-24T06:34:27;100867.75;;;11.41;100.00
47670;BME280;33408;52.062;11.722;2022-09-24T06:36:53;100868.69;;;11.38;100.00
47670;BME280;33408;52.062;11.722;2022-09-24T06:39:21;100867.41;;;11.59;100.00
47670;BME280;33408;52.062;11.722;2022-09-24T06:41:47;100869.94;;;11.62;100.00
47670;BME280;33408;52.062;11.722;2022-09-24T06:44:17;100873.84;;;11.82;100.00
47670;BME280;33408;52.062;11.722;2022-09-24T06:46:43;100871.25;;;11.82;100.00
47670;BME280;33408;52.062;11.722;2022-09-24T06:49:10;100862.28;;;11.97;100.00
47670;BME280;33408;52.062;11.722;2022-09-24T06:51:37;100867.22;;;12.09;100.00
47670;BME280;33408;52.062;11.722;2022-09-24T06:54:04;100869.94;;;12.04;100.00
47670;BME280;33408;52.062;11.722;2022-09-24T06:56:31;100877.00;;;11.98;100.00
47670;BME280;33408;52.062;11.722;2022-09-24T06:58:57;100877.53;;;12.12;100.00
47670;BME280;33408;52.062;11.722;2022-09-24T07:01:25;100866.63;;;12.35;100.00
47670;BME280;33408;52.062;11.722;2022-09-24T07:03:52;100874.16;;;12.46;100.00
47670;BME280;33408;52.062;11.722;2022-09-24T07:06:18;100874.06;;;12.49;100.00
47670;BME280;33408;52.062;11.722;2022-09-24T07:08:49;100874.94;;;12.50;100.00
47670;BME280;33408;52.062;11.722;2022-09-24T07:11:15;100868.94;;;12.48;100.00
47670;BME280;33408;52.062;11.722;2022-09-24T07:13:42;100874.28;;;12.76;100.00
47670;BME280;33408;52.062;11.722;2022-09-24T07:16:08;100872.44;;;12.80;100.00
47670;BME280;33408;52.062;11.722;2022-09-24T07:18:36;100862.59;;;12.92;100.00
47670;BME280;33408;52.062;11.722;2022-09-24T07:21:02;100865.78;;;13.02;100.00
47670;BME280;33408;52.062;11.722;2022-09-24T07:23:29;100870.16;;;12.69;100.00
47670;BME280;33408;52.062;11.722;2022-09-24T07:25:56;100874.22;;;12.79;100.00
47670;BME280;33408;52.062;11.722;2022-09-24T07:28:22;100878.88;;;12.66;100.00
47670;BME280;33408;52.062;11.722;2022-09-24T07:30:55;100870.53;;;12.86;100.00
47670;BME280;33408;52.062;11.722;2022-09-24T07:33:21;100870.69;;;13.14;100.00
47670;BME280;33408;52.062;11.722;2022-09-24T07:35:49;100870.75;;;12.79;100.00
47670;BME280;33408;52.062;11.722;2022-09-24T07:38:16;100872.25;;;12.87;100.00
47670;BME280;33408;52.062;11.722;2022-09-24T07:40:43;100878.41;;;12.85;100.00
47670;BME280;33408;52.062;11.722;2022-09-24T07:43:09;100872.06;;;12.95;100.00
47670;BME280;33408;52.062;11.722;2022-09-24T07:45:38;100878.78;;;13.04;100.00
47670;BME280;33408;52.062;11.722;2022-09-24T07:48:05;100875.44;;;13.33;100.00
47670;BME280;33408;52.062;11.722;2022-09-24T07:50:34;100875.38;;;13.35;100.00
47670;BME280;33408;52.062;11.722;2022-09-24T07:53:04;100878.28;;;12.89;100.00
47670;BME280;33408;52.062;11.722;2022-09-24T07:55:31;100871.88;;;12.68;100.00
47670;BME280;33408;52.062;11.722;2022-09-24T07:58:07;100869.66;;;12.53;100.00
47670;BME280;33408;52.062;11.722;2022-09-24T08:00:34;100872.41;;;12.47;100.00
47670;BME280;33408;52.062;11.722;2022-09-24T08:03:01;100869.13;;;12.74;100.00
47670;BME280;33408;52.062;11.722;2022-09-24T08:05:28;100871.84;;;13.04;100.00
47670;BME280;33408;52.062;11.722;2022-09-24T08:07:55;100874.94;;;12.84;100.00
47670;BME280;33408;52.062;11.722;2022-09-24T08:10:25;100876.00;;;12.77;100.00
47670;BME280;33408;52.062;11.722;2022-09-24T08:12:52;100875.81;;;13.18;100.00
47670;BME280;33408;52.062;11.722;2022-09-24T08:15:21;100874.56;;;13.31;100.00
47670;BME280;33408;52.062;11.722;2022-09-24T08:17:47;100878.59;;;13.74;100.00
47670;BME280;33408;52.062;11.722;2022-09-24T08:20:14;100875.47;;;13.63;100.00
47670;BME280;33408;52.062;11.722;2022-09-24T08:22:41;100881.09;;;13.47;100.00
47670;BME280;33408;52.062;11.722;2022-09-24T08:25:07;100875.66;;;13.86;100.00
47670;BME280;33408;52.062;11.722;2022-09-24T08:27:36;100882.94;;;14.03;100.00
47670;BME280;33408;52.062;11.722;2022-09-24T08:30:03;100879.31;;;14.09;100.00
47670;BME280;33408;52.062;11.722;2022-09-24T08:32:29;100879.28;;;14.37;100.00
47670;BME280;33408;52.062;11.722;2022-09-24T08:34:56;100877.72;;;14.60;100.00
47670;BME280;33408;52.062;11.722;2022-09-24T08:37:22;100873.16;;;14.38;100.00
47670;BME280;33408;52.062;11.722;2022-09-24T08:39:49;100875.25;;;14.55;100.00
47670;BME280;33408;52.062;11.722;2022-09-24T08:42:27;100873.84;;;14.97;100.00
47670;BME280;33408;52.062;11.722;2022-09-24T08:45:04;100870.19;;;14.77;100.00
47670;BME280;33408;52.062;11.722;2022-09-24T08:47:51;100885.75;;;15.06;100.00
47670;BME280;33408;52.062;11.722;2022-09-24T08:50:22;100877.56;;;15.17;100.00
47670;BME280;33408;52.062;11.722;2022-09-24T08:52:59;100887.16;;;14.91;100.00
47670;BME280;33408;52.062;11.722;2022-09-24T08:55:30;100885.44;;;14.90;100.00
47670;BME280;33408;52.062;11.722;2022-09-24T08:58:07;100881.38;;;14.81;100.00
47670;BME280;33408;52.062;11.722;2022-09-24T09:00:45;100880.53;;;15.06;100.00
47670;BME280;33408;52.062;11.722;2022-09-24T09:03:23;100882.16;;;15.08;100.00
47670;BME280;33408;52.062;11.722;2022-09-24T09:05:58;100892.97;;;15.48;100.00
47670;BME280;33408;52.062;11.722;2022-09-24T09:08:28;100887.88;;;15.92;100.00
47670;BME280;33408;52.062;11.722;2022-09-24T09:11:01;100883.81;;;16.29;100.00
47670;BME280;33408;52.062;11.722;2022-09-24T09:13:31;100879.72;;;15.78;98.33
47670;BME280;33408;52.062;11.722;2022-09-24T09:16:05;100887.81;;;15.70;98.08
47670;BME280;33408;52.062;11.722;2022-09-24T09:18:35;100880.13;;;15.42;96.74
47670;BME280;33408;52.062;11.722;2022-09-24T09:21:11;100883.25;;;15.75;95.04
47670;BME280;33408;52.062;11.722;2022-09-24T09:23:46;100890.38;;;15.72;93.01
47670;BME280;33408;52.062;11.722;2022-09-24T09:26:13;100886.59;;;16.26;91.24
47670;BME280;33408;52.062;11.722;2022-09-24T09:28:41;100890.25;;;15.98;92.42
47670;BME280;33408;52.062;11.722;2022-09-24T09:31:15;100884.75;;;16.50;91.13
47670;BME280;33408;52.062;11.722;2022-09-24T09:33:59;100883.31;;;16.64;86.63
47670;BME280;33408;52.062;11.722;2022-09-24T09:36:37;100882.13;;;16.50;86.32
47670;BME280;33408;52.062;11.722;2022-09-24T09:39:19;100883.38;;;16.62;85.36
47670;BME280;33408;52.062;11.722;2022-09-24T09:41:53;100881.84;;;16.56;84.21
47670;BME280;33408;52.062;11.722;2022-09-24T09:44:24;100877.19;;;16.43;86.06
47670;BME280;33408;52.062;11.722;2022-09-24T09:46:53;100874.56;;;16.65;85.70
47670;BME280;33408;52.062;11.722;2022-09-24T09:49:25;100875.22;;;16.70;83.66
47670;BME280;33408;52.062;11.722;2022-09-24T09:51:55;100871.00;;;17.08;82.55
47670;BME280;33408;52.062;11.722;2022-09-24T09:54:34;100870.88;;;17.11;82.83
47670;BME280;33408;52.062;11.722;2022-09-24T09:57:01;100871.06;;;17.65;79.52
47670;BME280;33408;52.062;11.722;2022-09-24T09:59:29;100876.84;;;17.93;77.16
47670;BME280;33408;52.062;11.722;2022-09-24T10:02:00;100870.31;;;17.82;75.89
47670;BME280;33408;52.062;11.722;2022-09-24T10:04:36;100875.03;;;18.12;72.46
47670;BME280;33408;52.062;11.722;2022-09-24T10:07:06;100879.19;;;18.35;70.67
47670;BME280;33408;52.062;11.722;2022-09-24T10:09:33;100863.75;;;18.29;68.76
47670;BME280;33408;52.062;11.722;2022-09-24T10:12:14;100870.19;;;18.76;68.53
47670;BME280;33408;52.062;11.722;2022-09-24T10:14:42;100862.75;;;19.19;67.46
47670;BME280;33408;52.062;11.722;2022-09-24T10:17:12;100867.78;;;19.40;66.40
47670;BME280;33408;52.062;11.722;2022-09-24T10:19:43;100865.84;;;19.27;64.91
47670;BME280;33408;52.062;11.722;2022-09-24T10:22:18;100869.41;;;19.92;61.42
47670;BME280;33408;52.062;11.722;2022-09-24T10:24:46;100860.72;;;19.24;61.61
47670;BME280;33408;52.062;11.722;2022-09-24T10:27:18;100862.88;;;19.49;61.73
47670;BME280;33408;52.062;11.722;2022-09-24T10:29:51;100855.88;;;19.66;60.61
47670;BME280;33408;52.062;11.722;2022-09-24T10:32:33;100849.47;;;20.03;57.72
47670;BME280;33408;52.062;11.722;2022-09-24T10:35:01;100848.25;;;19.61;58.00
47670;BME280;33408;52.062;11.722;2022-09-24T10:37:30;100848.53;;;19.89;57.68
47670;BME280;33408;52.062;11.722;2022-09-24T10:39:57;100848.47;;;19.90;57.97
47670;BME280;33408;52.062;11.722;2022-09-24T10:42:26;100839.94;;;19.53;58.21
47670;BME280;33408;52.062;11.722;2022-09-24T10:44:54;100839.06;;;19.68;56.55
47670;BME280;33408;52.062;11.722;2022-09-24T10:47:26;100840.69;;;20.19;55.90
47670;BME280;33408;52.062;11.722;2022-09-24T10:50:10;100834.59;;;19.86;56.77
47670;BME280;33408;52.062;11.722;2022-09-24T10:52:45;100835.22;;;20.08;57.90
47670;BME280;33408;52.062;11.722;2022-09-24T10:55:18;100830.44;;;20.14;55.67
47670;BME280;33408;52.062;11.722;2022-09-24T10:57:56;100838.97;;;19.54;57.51
47670;BME280;33408;52.062;11.722;2022-09-24T11:00:27;100836.38;;;19.86;56.21
47670;BME280;33408;52.062;11.722;2022-09-24T11:05:59;100831.22;;;20.00;55.90
47670;BME280;33408;52.062;11.722;2022-09-24T11:08:50;100832.09;;;20.15;55.16
47670;BME280;33408;52.062;11.722;2022-09-24T11:11:30;100832.03;;;20.47;55.26
47670;BME280;33408;52.062;11.722;2022-09-24T11:14:12;100829.44;;;20.31;55.00
47670;BME280;33408;52.062;11.722;2022-09-24T11:16:52;100831.56;;;20.40;53.82
47670;BME280;33408;52.062;11.722;2022-09-24T11:19:34;100825.84;;;20.02;53.35
47670;BME280;33408;52.062;11.722;2022-09-24T11:22:10;100814.41;;;19.71;53.97
47670;BME280;33408;52.062;11.722;2022-09-24T11:24:51;100811.38;;;19.79;53.92
47670;BME280;33408;52.062;11.722;2022-09-24T11:27:35;100822.88;;;20.08;51.91
47670;BME280;33408;52.062;11.722;2022-09-24T11:30:09;100815.47;;;20.15;52.70
47670;BME280;33408;52.062;11.722;2022-09-24T11:32:45;100822.94;;;20.22;53.03
47670;BME280;33408;52.062;11.722;2022-09-24T11:35:28;100822.91;;;20.38;51.62
47670;BME280;33408;52.062;11.722;2022-09-24T11:38:03;100813.13;;;19.94;52.56
47670;BME280;33408;52.062;11.722;2022-09-24T11:40:58;100815.91;;;19.59;54.27
47670;BME280;33408;52.062;11.722;2022-09-24T11:46:46;100821.53;;;19.85;53.44
47670;BME280;33408;52.062;11.722;2022-09-24T11:49:36;100811.00;;;20.01;52.64
47670;BME280;33408;52.062;11.722;2022-09-24T11:52:13;100808.91;;;19.76;53.02
47670;BME280;33408;52.062;11.722;2022-09-24T11:54:49;100810.16;;;20.00;52.64
47670;BME280;33408;52.062;11.722;2022-09-24T11:57:22;100814.47;;;19.70;53.83
47670;BME280;33408;52.062;11.722;2022-09-24T11:59:52;100812.53;;;20.05;52.21
47670;BME280;33408;52.062;11.722;2022-09-24T12:02:21;100813.81;;;20.28;53.46
47670;BME280;33408;52.062;11.722;2022-09-24T12:04:54;100797.50;;;19.75;53.82
47670;BME280;33408;52.062;11.722;2022-09-24T12:07:27;100813.53;;;20.02;53.91
47670;BME280;33408;52.062;11.722;2022-09-24T12:09:58;100809.78;;;20.53;52.59
47670;BME280;33408;52.062;11.722;2022-09-24T12:12:30;100806.56;;;20.17;51.71
47670;BME280;33408;52.062;11.722;2022-09-24T12:15:02;100799.69;;;19.67;51.62
47670;BME280;33408;52.062;11.722;2022-09-24T12:17:35;100798.69;;;20.17;51.64
47670;BME280;33408;52.062;11.722;2022-09-24T12:20:10;100798.81;;;20.30;50.15
47670;BME280;33408;52.062;11.722;2022-09-24T12:22:41;100792.75;;;20.58;48.62
47670;BME280;33408;52.062;11.722;2022-09-24T12:25:11;100781.25;;;20.45;48.16
47670;BME280;33408;52.062;11.722;2022-09-24T12:27:38;100789.25;;;20.74;48.36
47670;BME280;33408;52.062;11.722;2022-09-24T12:30:17;100787.34;;;20.76;47.00
47670;BME280;33408;52.062;11.722;2022-09-24T12:33:08;100774.66;;;20.97;46.36
47670;BME280;33408;52.062;11.722;2022-09-24T12:35:49;100778.22;;;21.25;45.52
47670;BME280;33408;52.062;11.722;2022-09-24T12:38:22;100780.56;;;21.29;45.56
47670;BME280;33408;52.062;11.722;2022-09-24T12:41:15;100780.44;;;21.45;45.12
47670;BME280;33408;52.062;11.722;2022-09-24T12:43:45;100771.38;;;21.08;45.24
47670;BME280;33408;52.062;11.722;2022-09-24T12:46:16;100770.81;;;21.17;46.33
47670;BME280;33408;52.062;11.722;2022-09-24T12:48:44;100772.50;;;21.74;44.60
47670;BME280;33408;52.062;11.722;2022-09-24T12:51:12;100771.53;;;21.34;45.02
47670;BME280;33408;52.062;11.722;2022-09-24T12:53:41;100776.28;;;21.56;44.43
47670;BME280;33408;52.062;11.722;2022-09-24T12:56:10;100770.56;;;21.35;45.15